WetterOnline ( https://www.wetteronline.de )

Wetter aktuell Oschatz

Aktuelles Wetter: Oschatz (152m)

6-stündlich | Neueste Meldungen
Ortszeit Temperatur Wetter
Fr, 14.05. 8:00 10.3° C bedeckt
Fr, 14.05. 2:00 9.2° C Sprühregen
Do, 13.05. 20:00 9.8° C Sprühregen
Do, 13.05. 14:00 10.7° C Sprühregen
Do, 13.05. 8:00 10.1° C Sprühregen
Do, 13.05. 2:00 11.2° C Sprühregen
Mi, 12.05. 20:00 11.6° C Sprühregen
Mi, 12.05. 14:00 12.8° C leichter Regen
Ortszeit Temperatur Wetter
Fr, 14.05. 9:30 11.5° C leichter Regen
Fr, 14.05. 9:20 11.5° C leichter Regen
Fr, 14.05. 9:10 11.4° C Sprühregen
Fr, 14.05. 9:00 11.0° C leichter Regen
Fr, 14.05. 8:50 11.0° C leichter Regen
Fr, 14.05. 8:40 11.0° C leichter Regen
Fr, 14.05. 8:30 10.6° C leichter Regen
Fr, 14.05. 8:00 10.3° C bedeckt
Ortszeit Relative Feuchte Sichtweite
Fr, 14.05. 8:00 96% 13 km
Fr, 14.05. 2:00 95% 17 km
Do, 13.05. 20:00 95% 4.1 km
Do, 13.05. 14:00 94% 7 km
Do, 13.05. 8:00 96% 4.8 km
Do, 13.05. 2:00 97% 5.0 km
Mi, 12.05. 20:00 97% 2.7 km
Mi, 12.05. 14:00 89% 18 km
Ortszeit Relative Feuchte Sichtweite
Fr, 14.05. 9:30 91% 16 km
Fr, 14.05. 9:20 91% -
Fr, 14.05. 9:10 91% -
Fr, 14.05. 9:00 91% 11 km
Fr, 14.05. 8:50 91% -
Fr, 14.05. 8:40 92% -
Fr, 14.05. 8:30 94% 12 km
Fr, 14.05. 8:00 96% 13 km
Ortszeit Niederschlagsmenge Niederschlagsart
Fr, 14.05. 8:00 4 l/m2 in 12 Std. Regen
Fr, 14.05. 2:00 3 l/m2 in 6 Std. Regen
Do, 13.05. 20:00 5 l/m2 in 12 Std. Regen
Do, 13.05. 14:00 3 l/m2 in 6 Std. Regen
Do, 13.05. 8:00 12 l/m2 in 12 Std. Regen
Do, 13.05. 2:00 1 l/m2 in 6 Std. Regen
Mi, 12.05. 20:00 3 l/m2 in 12 Std. Regen
Mi, 12.05. 14:00 0.4 l/m2 in 6 Std. Regen
Ortszeit Niederschlagsmenge Niederschlagsart
Fr, 14.05. 9:30 0.1 l/m2 in 1 Std. -
Fr, 14.05. 9:20 keine Meldung -
Fr, 14.05. 9:10 keine Meldung -
Fr, 14.05. 9:00 0.1 l/m2 in 1 Std. Regen
Fr, 14.05. 8:50 keine Meldung -
Fr, 14.05. 8:40 keine Meldung -
Fr, 14.05. 8:30 0.1 l/m2 in 1 Std. -
Fr, 14.05. 8:00 0.1 l/m2 in 1 Std. Regen
Ortszeit Stärke Spitze Richtung
km/h Bft. km/h Grad Sektor
Fr, 14.05. 8:00 7 2 25 240° SW
Fr, 14.05. 2:00 14 3 29 260° W
Do, 13.05. 20:00 18 3 32 290° W
Do, 13.05. 14:00 18 3 32 290° W
Do, 13.05. 8:00 17 3 30 290° W
Do, 13.05. 2:00 13 3 26 310° NW
Mi, 12.05. 20:00 14 3 36 310° NW
Mi, 12.05. 14:00 17 3 30 300° NW
Ortszeit Stärke Spitze Richtung
km/h Bft. km/h Grad Sektor
Fr, 14.05. 9:30 11 2 18 260° W
Fr, 14.05. 9:20 11 2 - 260° W
Fr, 14.05. 9:10 9 2 - 260° W
Fr, 14.05. 9:00 9 2 19 270° W
Fr, 14.05. 8:50 9 2 - 270° W
Fr, 14.05. 8:40 9 2 - 270° W
Fr, 14.05. 8:30 11 2 19 250° W
Fr, 14.05. 8:00 7 2 14 240° SW
Ortszeit Untergrenze Bedeckung Gattung
total tief tief mittel hoch
Fr, 14.05. 8:00 1500 m 8/8 8/8 - - -
Fr, 14.05. 2:00 1500 m 8/8 8/8 - - -
Do, 13.05. 20:00 510 m 8/8 8/8 - - -
Do, 13.05. 14:00 270 m 8/8 8/8 - - -
Do, 13.05. 8:00 210 m 8/8 8/8 - - -
Do, 13.05. 2:00 150 m 7/8 7/8 - - -
Mi, 12.05. 20:00 210 m 8/8 8/8 - - -
Mi, 12.05. 14:00 330 m 7/8 8/8 - - -
Ortszeit Bedeckungsgrad in Achtel und Wolkenuntergrenze
Fr, 14.05. 9:30 1(300m) 6(1500m) 8(2100m)
Fr, 14.05. 9:20 1(300m) 6(1500m) 8(2100m)
Fr, 14.05. 9:10 1(300m) 4(1500m) 8(1800m)
Fr, 14.05. 9:00 7(1800m)
Fr, 14.05. 8:50 7(1800m)
Fr, 14.05. 8:40 7(1800m)
Fr, 14.05. 8:30 1(1380m) 8(1800m) 8(2100m)
Fr, 14.05. 8:00 8(1500m) 8(2100m)
Ortszeit Luftdruck NN (hPa) Tendenz (hPa in 3 Std.)
Fr, 14.05. 8:00 1006 + 0,7
Fr, 14.05. 2:00 1006 - 0,3
Do, 13.05. 20:00 1006 0,0
Do, 13.05. 14:00 1006 - 0,5
Do, 13.05. 8:00 1006 - 0,5
Do, 13.05. 2:00 1008 - 1,0
Mi, 12.05. 20:00 1009 + 0,2
Mi, 12.05. 14:00 1009 + 0,6
Ortszeit Luftdruck NN (hPa) Tendenz (hPa in 3 Std.)
Fr, 14.05. 9:30 1006 + 1,1
Fr, 14.05. 9:20 1006 keine Meldung
Fr, 14.05. 9:10 1006 keine Meldung
Fr, 14.05. 9:00 1006 + 0,9
Fr, 14.05. 8:50 1006 keine Meldung
Fr, 14.05. 8:40 1006 keine Meldung
Fr, 14.05. 8:30 1006 + 0,9
Fr, 14.05. 8:00 1006 + 0,7
Ortszeit Schneehöhe (cm)
Fr, 14.05. 8:00 0
Fr, 14.05. 2:00 0
Do, 13.05. 20:00 0
Do, 13.05. 14:00 0
Do, 13.05. 8:00 0
Do, 13.05. 2:00 0
Mi, 12.05. 20:00 0
Mi, 12.05. 14:00 0
Ortszeit Schneehöhe (cm)
Fr, 14.05. 9:30 0
Fr, 14.05. 9:20 0
Fr, 14.05. 9:10 0
Fr, 14.05. 9:00 0
Fr, 14.05. 8:50 0
Fr, 14.05. 8:40 0
Fr, 14.05. 8:30 0
Fr, 14.05. 8:00 0
Link zu dieser Seite / Seite empfehlen

Das Wetter in ...